Weather at Heraklion International Nikos Kazantzakis Airport

Public forecast

Using degrees Celsius for public forecast. Weather courtesy of forecast.io.

Current aviation weather report (METAR) for Heraklion International Nikos Kazantzakis Airport

Report is more than 6 hours old.

Retrieved 2022/09/17 18:50 UTC (9 days ago):

LGIR 171850Z 17004KT CAVOK 23/18 Q1008 NOSIG

Aviation forecast (TAF) for Heraklion International Nikos Kazantzakis Airport

Forecast is more than 12 hours old.

Retrieved 2022/09/17 18:16 UTC (9 days ago):

TAF LGIR 171700Z 1718/1818 VRB05KT 9999 FEW020 TEMPO 1721/1809 19010KT BECMG 1808/1810 31012KT